createdAt,value
2018-08-13T00:00:28.839Z,63.79
2018-08-13T00:01:00.023Z,63.87
2018-08-13T00:01:31.155Z,63.26
2018-08-13T00:02:02.321Z,63.48
2018-08-13T00:02:33.436Z,63.60
2018-08-13T00:03:04.596Z,63.35
2018-08-13T00:03:35.823Z,63.46
2018-08-13T00:04:07.088Z,64.35
2018-08-13T00:04:38.246Z,64.30
2018-08-13T00:05:09.354Z,64.31
2018-08-13T00:05:40.584Z,65.02
2018-08-13T00:06:11.703Z,64.00
2018-08-13T00:06:42.891Z,64.49
2018-08-13T00:07:14.013Z,64.34
2018-08-13T00:07:45.185Z,64.41
2018-08-13T00:08:16.358Z,64.47
2018-08-13T00:08:47.468Z,65.06
2018-08-13T00:09:18.632Z,65.12
2018-08-13T00:09:49.756Z,64.99
2018-08-13T00:10:20.874Z,64.47
2018-08-13T00:10:51.987Z,64.87
2018-08-13T00:11:23.244Z,65.36
2018-08-13T00:11:54.361Z,65.17
2018-08-13T00:12:25.532Z,65.13
2018-08-13T00:12:56.651Z,65.05
2018-08-13T00:13:27.816Z,65.11
2018-08-13T00:13:58.937Z,64.70
2018-08-13T00:14:30.165Z,64.99
2018-08-13T00:15:01.353Z,64.97
2018-08-13T00:15:32.503Z,64.53
2018-08-13T00:16:03.619Z,64.99
2018-08-13T00:16:34.793Z,64.59
2018-08-13T00:17:05.903Z,64.61
2018-08-13T00:17:37.096Z,65.05
2018-08-13T00:18:08.233Z,64.29
2018-08-13T00:18:39.444Z,64.16
2018-08-13T00:19:10.622Z,64.03
2018-08-13T00:19:41.793Z,64.44
2018-08-13T00:20:12.900Z,64.13
2018-08-13T00:20:44.020Z,64.75
2018-08-13T00:21:15.204Z,65.05
2018-08-13T00:21:46.420Z,65.11
2018-08-13T00:22:17.531Z,64.56
2018-08-13T00:22:48.645Z,65.00
2018-08-13T00:23:19.813Z,64.36
2018-08-13T00:23:51.007Z,65.00
2018-08-13T00:24:22.184Z,65.04
2018-08-13T00:24:53.400Z,64.94
2018-08-13T00:25:24.568Z,65.15
2018-08-13T00:25:55.732Z,65.23
2018-08-13T00:26:26.840Z,64.72
2018-08-13T00:26:57.956Z,64.75
2018-08-13T00:27:29.063Z,64.71
2018-08-13T00:28:00.281Z,65.04
2018-08-13T00:28:31.400Z,64.80
2018-08-13T00:29:02.636Z,65.04
2018-08-13T00:29:33.803Z,65.21
2018-08-13T00:30:05.078Z,64.71
2018-08-13T00:30:36.258Z,64.56
2018-08-13T00:31:07.428Z,64.66
2018-08-13T00:31:38.653Z,64.99
2018-08-13T00:32:09.824Z,65.09
2018-08-13T00:32:41.028Z,64.98
2018-08-13T00:33:12.205Z,64.97
2018-08-13T00:33:43.311Z,65.10
2018-08-13T00:34:14.489Z,65.21
2018-08-13T00:34:45.592Z,65.14
2018-08-13T00:35:16.749Z,64.92
2018-08-13T00:35:47.984Z,64.44
2018-08-13T00:36:19.157Z,64.82
2018-08-13T00:36:50.381Z,64.46
2018-08-13T00:37:21.535Z,65.06
2018-08-13T00:37:52.710Z,65.11
2018-08-13T00:38:23.883Z,65.09
2018-08-13T00:38:55.127Z,64.83
2018-08-13T00:39:26.320Z,65.18
2018-08-13T00:39:57.433Z,64.82
2018-08-13T00:40:28.543Z,65.44
2018-08-13T00:40:59.688Z,64.94
2018-08-13T00:41:30.861Z,65.55
2018-08-13T00:42:02.030Z,65.65
2018-08-13T00:42:34.301Z,65.40
2018-08-13T00:43:05.870Z,65.28
2018-08-13T00:43:37.024Z,65.33
2018-08-13T00:44:08.142Z,66.67
2018-08-13T00:44:39.407Z,66.31
2018-08-13T00:45:10.620Z,65.75
2018-08-13T00:45:41.821Z,66.56
2018-08-13T00:46:12.936Z,65.89
2018-08-13T00:46:44.041Z,66.43
2018-08-13T00:47:15.209Z,66.03
2018-08-13T00:47:46.332Z,66.52
2018-08-13T00:48:17.441Z,66.30
2018-08-13T00:48:48.626Z,66.49
2018-08-13T00:49:19.745Z,67.17
2018-08-13T00:49:50.856Z,67.29
2018-08-13T00:50:22.023Z,67.53
2018-08-13T00:50:53.232Z,67.78
2018-08-13T00:51:24.404Z,67.84
2018-08-13T00:51:55.588Z,68.17
2018-08-13T00:52:26.707Z,68.15
2018-08-13T00:52:57.825Z,68.15
2018-08-13T00:53:29.053Z,68.06
2018-08-13T00:54:00.172Z,68.11
2018-08-13T00:54:31.333Z,68.11
2018-08-13T00:55:02.459Z,67.81
2018-08-13T00:55:33.663Z,67.83
2018-08-13T00:56:04.774Z,67.71
2018-08-13T00:56:35.929Z,68.30
2018-08-13T00:57:07.044Z,67.94
2018-08-13T00:57:38.222Z,68.47
2018-08-13T00:58:09.336Z,68.59
2018-08-13T00:58:40.541Z,68.87
2018-08-13T00:59:11.707Z,68.61
2018-08-13T00:59:42.884Z,69.15
2018-08-13T01:00:13.992Z,69.86
2018-08-13T01:00:45.161Z,69.74
2018-08-13T01:01:16.334Z,70.40
2018-08-13T01:01:47.557Z,70.52
2018-08-13T01:02:18.685Z,70.87
2018-08-13T01:02:49.908Z,71.45
2018-08-13T01:03:21.079Z,71.58
2018-08-13T01:03:52.257Z,72.56
2018-08-13T01:04:23.420Z,72.78
2018-08-13T01:04:54.584Z,72.66
2018-08-13T01:05:25.760Z,72.21
2018-08-13T01:05:56.960Z,72.97
2018-08-13T01:06:28.197Z,72.44
2018-08-13T01:06:59.370Z,73.12
2018-08-13T01:07:30.554Z,73.02
2018-08-13T01:08:01.743Z,73.37
2018-08-13T01:08:32.917Z,73.30
2018-08-13T01:09:04.099Z,72.89
2018-08-13T01:09:35.276Z,73.26
2018-08-13T01:10:06.393Z,73.05
2018-08-13T01:10:37.569Z,73.46
2018-08-13T01:11:08.760Z,73.30
2018-08-13T01:11:39.943Z,73.51
2018-08-13T01:12:11.054Z,73.20
2018-08-13T01:12:42.223Z,73.33
2018-08-13T01:13:13.339Z,73.72
2018-08-13T01:13:44.554Z,73.20
2018-08-13T01:14:15.729Z,73.81
2018-08-13T01:14:46.839Z,73.93
2018-08-13T01:15:18.012Z,73.91
2018-08-13T01:15:49.185Z,73.39
2018-08-13T01:16:20.359Z,73.14
2018-08-13T01:16:51.487Z,73.00
2018-08-13T01:17:22.604Z,73.36
2018-08-13T01:17:53.812Z,72.89
2018-08-13T01:18:24.995Z,73.45
2018-08-13T01:18:56.235Z,72.99
2018-08-13T01:19:27.405Z,73.49
2018-08-13T01:19:58.581Z,73.54
2018-08-13T01:20:29.785Z,72.88
2018-08-13T01:21:00.939Z,72.78
2018-08-13T01:21:32.052Z,73.48
2018-08-13T01:22:03.175Z,73.20
2018-08-13T01:22:34.287Z,73.41
2018-08-13T01:23:05.464Z,73.62
2018-08-13T01:23:36.696Z,73.28
2018-08-13T01:24:07.888Z,73.28
2018-08-13T01:24:39.052Z,73.53
2018-08-13T01:25:10.316Z,73.83
2018-08-13T01:25:41.496Z,73.83
2018-08-13T01:26:12.611Z,74.24
2018-08-13T01:26:43.787Z,73.93
2018-08-13T01:27:14.964Z,74.33
2018-08-13T01:27:46.084Z,73.68
2018-08-13T01:28:17.210Z,73.88
2018-08-13T01:28:48.418Z,74.17
2018-08-13T01:29:19.649Z,73.77
2018-08-13T01:29:50.872Z,73.75
2018-08-13T01:30:22.040Z,74.57
2018-08-13T01:30:53.280Z,74.31
2018-08-13T01:31:24.473Z,73.87
2018-08-13T01:31:55.595Z,74.20
2018-08-13T01:32:26.706Z,74.21
2018-08-13T01:32:57.944Z,74.29
2018-08-13T01:33:29.062Z,73.81
2018-08-13T01:34:00.180Z,74.55
2018-08-13T01:34:31.365Z,73.73
2018-08-13T01:35:02.593Z,74.29
2018-08-13T01:35:33.723Z,74.51
2018-08-13T01:36:04.843Z,74.86
2018-08-13T01:36:35.961Z,74.52
2018-08-13T01:37:07.146Z,74.85
2018-08-13T01:37:38.266Z,74.37
2018-08-13T01:38:09.439Z,74.87
2018-08-13T01:38:40.612Z,75.17
2018-08-13T01:39:11.789Z,75.21
2018-08-13T01:39:42.919Z,75.11
2018-08-13T01:40:14.133Z,75.39
2018-08-13T01:40:45.254Z,75.08
2018-08-13T01:41:16.368Z,74.99
2018-08-13T01:41:47.479Z,75.30
2018-08-13T01:42:18.708Z,75.02
2018-08-13T01:42:49.827Z,75.78
2018-08-13T01:43:21.006Z,75.29
2018-08-13T01:43:52.126Z,76.18
2018-08-13T01:44:23.324Z,76.18
2018-08-13T01:44:54.444Z,76.01
2018-08-13T01:45:25.656Z,75.61
2018-08-13T01:45:56.774Z,76.02
2018-08-13T01:46:28.012Z,75.46
2018-08-13T01:46:59.135Z,75.77
2018-08-13T01:47:30.364Z,75.61
2018-08-13T01:48:01.497Z,75.38
2018-08-13T01:48:32.661Z,75.11
2018-08-13T01:49:03.896Z,75.73
2018-08-13T01:49:35.183Z,75.40
2018-08-13T01:50:06.367Z,75.78
2018-08-13T01:50:37.536Z,75.65
2018-08-13T01:51:08.709Z,75.33
2018-08-13T01:51:39.877Z,74.67
2018-08-13T01:52:11.062Z,75.12
2018-08-13T01:52:42.176Z,74.95
2018-08-13T01:53:13.285Z,75.00
2018-08-13T01:53:44.455Z,74.44
2018-08-13T01:54:15.677Z,75.11
2018-08-13T01:54:46.952Z,74.96
2018-08-13T01:55:18.181Z,74.71
2018-08-13T01:55:49.336Z,74.56
2018-08-13T01:56:20.452Z,74.55
2018-08-13T01:56:51.604Z,74.70
2018-08-13T01:57:22.755Z,75.33
2018-08-13T01:57:53.868Z,74.31
2018-08-13T01:58:24.985Z,75.47
2018-08-13T01:58:56.110Z,75.04
2018-08-13T01:59:27.280Z,76.06
2018-08-13T01:59:58.414Z,75.62
2018-08-13T02:00:29.596Z,76.46
2018-08-13T02:01:00.710Z,76.02
2018-08-13T02:01:31.923Z,75.90
2018-08-13T02:02:03.032Z,75.54
2018-08-13T02:02:34.152Z,75.68
2018-08-13T02:03:05.324Z,75.82
2018-08-13T02:03:36.548Z,76.12
2018-08-13T02:04:07.674Z,75.85
2018-08-13T02:04:38.905Z,74.94
2018-08-13T02:05:10.040Z,74.98
2018-08-13T02:05:41.215Z,75.72
2018-08-13T02:06:12.332Z,75.89
2018-08-13T02:06:43.524Z,76.19
2018-08-13T02:07:14.753Z,76.34
2018-08-13T02:07:45.872Z,76.85
2018-08-13T02:08:17.039Z,76.50
2018-08-13T02:08:48.209Z,76.29
2018-08-13T02:09:19.381Z,76.75
2018-08-13T02:09:50.564Z,75.84
2018-08-13T02:10:21.737Z,76.42
2018-08-13T02:10:52.852Z,75.99
2018-08-13T02:11:24.023Z,76.44
2018-08-13T02:11:55.172Z,76.12
2018-08-13T02:12:26.338Z,75.12
2018-08-13T02:12:57.456Z,75.23
2018-08-13T02:13:28.673Z,75.78
2018-08-13T02:13:59.791Z,75.45
2018-08-13T02:14:30.964Z,76.21
2018-08-13T02:15:02.145Z,76.52
2018-08-13T02:15:33.262Z,75.89
2018-08-13T02:16:04.441Z,75.80
2018-08-13T02:16:35.636Z,76.61
2018-08-13T02:17:06.799Z,76.00
2018-08-13T02:17:37.969Z,76.10
2018-08-13T02:18:09.142Z,75.23
2018-08-13T02:18:40.267Z,75.27
2018-08-13T02:19:11.382Z,75.66
2018-08-13T02:19:42.552Z,76.16
2018-08-13T02:20:13.659Z,75.60
2018-08-13T02:20:44.840Z,76.03
2018-08-13T02:21:16.056Z,75.75
2018-08-13T02:21:47.181Z,76.22
2018-08-13T02:22:18.332Z,75.61
2018-08-13T02:22:49.497Z,75.22
2018-08-13T02:23:20.614Z,75.06
2018-08-13T02:23:51.780Z,75.48
2018-08-13T02:24:22.948Z,75.02
2018-08-13T02:24:54.124Z,74.94
2018-08-13T02:25:25.303Z,75.05
2018-08-13T02:25:56.476Z,74.99
2018-08-13T02:26:27.584Z,75.15
2018-08-13T02:26:58.746Z,74.51
2018-08-13T02:27:29.903Z,75.04
2018-08-13T02:28:01.018Z,75.18
2018-08-13T02:28:32.193Z,75.04
2018-08-13T02:29:03.361Z,74.74
2018-08-13T02:29:34.535Z,75.08
2018-08-13T02:30:05.715Z,74.82
2018-08-13T02:30:36.840Z,75.04
2018-08-13T02:31:08.021Z,75.31
2018-08-13T02:31:39.139Z,74.83
2018-08-13T02:32:10.260Z,74.99
2018-08-13T02:32:41.460Z,75.04
2018-08-13T02:33:12.580Z,75.62
2018-08-13T02:33:43.701Z,75.32
2018-08-13T02:34:14.811Z,75.61
2018-08-13T02:34:46.005Z,75.43
2018-08-13T02:35:17.132Z,75.40
2018-08-13T02:35:48.252Z,76.14
2018-08-13T02:36:19.413Z,75.60
2018-08-13T02:36:50.588Z,75.72
2018-08-13T02:37:21.719Z,75.95
2018-08-13T02:37:52.918Z,75.96
2018-08-13T02:38:24.023Z,76.33
2018-08-13T02:38:55.133Z,76.91
2018-08-13T02:39:26.252Z,76.95
2018-08-13T02:39:57.364Z,76.89
2018-08-13T02:40:28.521Z,77.13
2018-08-13T02:40:59.694Z,76.45
2018-08-13T02:41:30.812Z,76.58
2018-08-13T02:42:02.038Z,76.99
2018-08-13T02:42:33.160Z,76.33
2018-08-13T02:43:04.356Z,76.30
2018-08-13T02:43:35.528Z,76.57
2018-08-13T02:44:06.650Z,76.38
2018-08-13T02:44:37.825Z,76.26
2018-08-13T02:45:08.950Z,76.69
2018-08-13T02:45:40.060Z,76.57
2018-08-13T02:46:11.224Z,75.99
2018-08-13T02:46:42.401Z,76.23
2018-08-13T02:47:13.570Z,76.40
2018-08-13T02:47:44.684Z,76.38
2018-08-13T02:48:15.827Z,75.78
2018-08-13T02:48:46.991Z,76.01
2018-08-13T02:49:18.215Z,75.90
2018-08-13T02:49:49.396Z,76.34
2018-08-13T02:50:20.517Z,76.16
2018-08-13T02:50:51.620Z,76.19
2018-08-13T02:51:22.785Z,76.48
2018-08-13T02:51:53.899Z,76.88
2018-08-13T02:52:25.053Z,76.91
2018-08-13T02:52:56.320Z,77.07
2018-08-13T02:53:27.490Z,77.14
2018-08-13T02:53:58.661Z,76.59
2018-08-13T02:54:29.890Z,76.77
2018-08-13T02:55:01.064Z,76.92
2018-08-13T02:55:32.225Z,77.45
2018-08-13T02:56:03.456Z,77.23
2018-08-13T02:56:34.657Z,77.13
2018-08-13T02:57:05.821Z,77.78
2018-08-13T02:57:36.944Z,77.67
2018-08-13T02:58:08.094Z,77.22
2018-08-13T02:58:39.256Z,77.32
2018-08-13T02:59:10.379Z,77.55
2018-08-13T02:59:41.586Z,77.09
2018-08-13T03:00:12.757Z,77.81
2018-08-13T03:00:43.925Z,77.79
2018-08-13T03:01:15.096Z,77.88
2018-08-13T03:01:46.328Z,77.15
2018-08-13T03:02:17.490Z,77.66
2018-08-13T03:02:48.661Z,77.65
2018-08-13T03:03:19.832Z,77.56
2018-08-13T03:03:50.951Z,76.74
2018-08-13T03:04:22.188Z,76.60
2018-08-13T03:04:53.418Z,76.91
2018-08-13T03:05:24.612Z,76.87
2018-08-13T03:05:55.894Z,76.86
2018-08-13T03:06:27.023Z,76.25
2018-08-13T03:06:58.196Z,76.46
2018-08-13T03:07:29.317Z,76.73
2018-08-13T03:08:00.488Z,76.65
2018-08-13T03:08:31.635Z,76.04
2018-08-13T03:09:02.784Z,76.60
2018-08-13T03:09:33.918Z,76.48
2018-08-13T03:10:05.037Z,76.48
2018-08-13T03:10:36.153Z,76.68
2018-08-13T03:11:07.307Z,76.44
2018-08-13T03:11:38.479Z,76.39
2018-08-13T03:12:09.655Z,76.21
2018-08-13T03:12:40.917Z,76.14
2018-08-13T03:13:12.093Z,76.15
2018-08-13T03:13:43.305Z,76.00
2018-08-13T03:14:14.425Z,76.68
2018-08-13T03:14:45.649Z,75.94
2018-08-13T03:15:16.773Z,76.55
2018-08-13T03:15:47.949Z,76.97
2018-08-13T03:16:19.116Z,76.24
2018-08-13T03:16:50.233Z,76.50
2018-08-13T03:17:21.418Z,76.19
2018-08-13T03:17:52.566Z,75.66
2018-08-13T03:18:23.749Z,76.01
2018-08-13T03:18:54.855Z,76.41
2018-08-13T03:19:25.970Z,76.08
2018-08-13T03:19:57.206Z,76.31
2018-08-13T03:20:28.329Z,76.12
2018-08-13T03:20:59.493Z,76.19
2018-08-13T03:21:30.617Z,76.19
2018-08-13T03:22:01.784Z,75.69
2018-08-13T03:22:32.947Z,76.16
2018-08-13T03:23:04.061Z,75.73
2018-08-13T03:23:35.171Z,75.65
2018-08-13T03:24:06.284Z,75.75
2018-08-13T03:24:37.463Z,75.61
2018-08-13T03:25:08.637Z,76.19
2018-08-13T03:25:39.771Z,75.58
2018-08-13T03:26:10.878Z,75.63
2018-08-13T03:26:41.991Z,76.50
2018-08-13T03:27:13.160Z,76.16
2018-08-13T03:27:44.401Z,75.83
2018-08-13T03:28:15.571Z,76.14
2018-08-13T03:28:46.757Z,76.21
2018-08-13T03:29:17.873Z,76.27
2018-08-13T03:29:49.043Z,76.28
2018-08-13T03:30:20.156Z,76.21
2018-08-13T03:30:51.272Z,76.51
2018-08-13T03:31:22.385Z,76.56
2018-08-13T03:31:53.552Z,76.26
2018-08-13T03:32:24.654Z,76.19
2018-08-13T03:32:55.919Z,76.43
2018-08-13T03:33:27.049Z,76.42
2018-08-13T03:33:58.285Z,76.56
2018-08-13T03:34:29.410Z,76.45
2018-08-13T03:35:00.579Z,76.76
2018-08-13T03:35:31.740Z,75.85
2018-08-13T03:36:02.920Z,75.84
2018-08-13T03:36:34.044Z,75.81
2018-08-13T03:37:05.160Z,76.08
2018-08-13T03:37:36.334Z,74.89
2018-08-13T03:38:07.484Z,75.19
2018-08-13T03:38:38.717Z,75.11
2018-08-13T03:39:09.953Z,74.66
2018-08-13T03:39:41.169Z,74.47
2018-08-13T03:40:12.329Z,74.13
2018-08-13T03:40:43.496Z,73.51
2018-08-13T03:41:14.607Z,73.71
2018-08-13T03:41:45.775Z,73.44
2018-08-13T03:42:16.890Z,73.24
2018-08-13T03:42:47.998Z,72.54
2018-08-13T03:43:19.101Z,72.26
2018-08-13T03:43:50.272Z,71.56
2018-08-13T03:44:21.378Z,71.77
2018-08-13T03:44:52.523Z,71.74
2018-08-13T03:45:23.679Z,71.82
2018-08-13T03:45:54.799Z,71.79
2018-08-13T03:46:25.911Z,71.22
2018-08-13T03:46:57.077Z,71.63
2018-08-13T03:47:28.202Z,71.21
2018-08-13T03:47:59.321Z,70.46
2018-08-13T03:48:30.585Z,70.41
2018-08-13T03:49:01.789Z,70.43
2018-08-13T03:49:32.899Z,69.70
2018-08-13T03:50:04.060Z,68.96
2018-08-13T03:50:35.246Z,68.78
2018-08-13T03:51:06.456Z,68.22
2018-08-13T03:51:37.579Z,68.36
2018-08-13T03:52:08.699Z,68.42
2018-08-13T03:52:39.875Z,68.00
2018-08-13T03:53:10.980Z,67.60
2018-08-13T03:53:42.127Z,67.13
2018-08-13T03:54:13.246Z,67.11
2018-08-13T03:54:44.363Z,66.55
2018-08-13T03:55:15.484Z,66.89
2018-08-13T03:55:46.653Z,66.41
2018-08-13T03:56:17.918Z,66.67
2018-08-13T03:56:49.085Z,66.02
2018-08-13T03:57:20.312Z,66.10
2018-08-13T03:57:51.485Z,66.56
2018-08-13T03:58:22.662Z,65.64
2018-08-13T03:58:53.872Z,65.85
2018-08-13T03:59:25.005Z,65.19
2018-08-13T03:59:56.121Z,64.22
2018-08-13T04:00:27.291Z,63.70
2018-08-13T04:00:58.836Z,63.91
2018-08-13T04:01:30.048Z,63.72
2018-08-13T04:02:01.172Z,63.05
2018-08-13T04:02:32.287Z,62.99
2018-08-13T04:03:03.452Z,63.05
2018-08-13T04:03:34.571Z,62.51
2018-08-13T04:04:05.725Z,62.25
2018-08-13T04:04:36.849Z,61.05
2018-08-13T04:05:08.076Z,60.90
2018-08-13T04:05:39.197Z,60.87
2018-08-13T04:06:10.311Z,60.83
2018-08-13T04:06:41.476Z,60.29
2018-08-13T04:07:12.648Z,60.14
2018-08-13T04:07:43.836Z,59.87
2018-08-13T04:08:14.951Z,59.96
2018-08-13T04:08:46.122Z,59.66
2018-08-13T04:09:17.316Z,59.11
2018-08-13T04:09:48.498Z,59.45
2018-08-13T04:10:19.779Z,59.63
2018-08-13T04:10:50.900Z,60.67
2018-08-13T04:11:22.064Z,60.37
2018-08-13T04:11:53.236Z,61.49
2018-08-13T04:12:24.366Z,61.66
2018-08-13T04:12:55.552Z,62.43
2018-08-13T04:13:26.690Z,63.07
2018-08-13T04:13:57.807Z,63.22
2018-08-13T04:14:28.927Z,62.71
2018-08-13T04:15:00.153Z,62.78
2018-08-13T04:15:31.342Z,61.85
2018-08-13T04:16:02.460Z,60.42
2018-08-13T04:16:33.608Z,60.18
2018-08-13T04:17:04.727Z,59.30
2018-08-13T04:17:35.906Z,58.70
2018-08-13T04:18:07.020Z,58.06
2018-08-13T04:18:38.200Z,57.59
2018-08-13T04:19:09.318Z,57.61
2018-08-13T04:19:40.431Z,57.29
2018-08-13T04:20:11.545Z,57.25
2018-08-13T04:20:42.718Z,57.80
2018-08-13T04:21:13.936Z,58.14
2018-08-13T04:21:45.117Z,58.91
2018-08-13T04:22:16.281Z,59.20
2018-08-13T04:22:47.464Z,60.37
2018-08-13T04:23:18.594Z,60.58
2018-08-13T04:23:49.717Z,60.57
2018-08-13T04:24:20.870Z,60.62
2018-08-13T04:24:52.085Z,59.94
2018-08-13T04:25:23.252Z,58.77
2018-08-13T04:25:54.481Z,58.18
2018-08-13T04:26:25.610Z,57.90
2018-08-13T04:26:56.771Z,56.52
2018-08-13T04:27:27.944Z,56.35
2018-08-13T04:27:59.062Z,55.54
2018-08-13T04:28:30.320Z,54.62
2018-08-13T04:29:01.493Z,54.13
2018-08-13T04:29:32.664Z,53.21
2018-08-13T04:30:03.791Z,53.26
2018-08-13T04:30:34.911Z,52.11
2018-08-13T04:31:06.021Z,51.58
2018-08-13T04:31:37.193Z,51.10
2018-08-13T04:32:08.312Z,50.54
2018-08-13T04:32:39.432Z,50.13
2018-08-13T04:33:10.651Z,48.90
2018-08-13T04:33:41.800Z,49.47
2018-08-13T04:34:12.963Z,48.64
2018-08-13T04:34:44.071Z,48.84
2018-08-13T04:35:15.234Z,48.48
2018-08-13T04:35:46.420Z,48.43
2018-08-13T04:36:17.600Z,48.81
2018-08-13T04:36:48.772Z,48.87
2018-08-13T04:37:19.876Z,48.16
2018-08-13T04:37:50.983Z,47.96
2018-08-13T04:38:22.152Z,48.05
2018-08-13T04:38:53.417Z,47.84
2018-08-13T04:39:24.562Z,46.45
2018-08-13T04:39:55.685Z,46.49
2018-08-13T04:40:26.853Z,45.86
2018-08-13T04:40:57.963Z,45.89
2018-08-13T04:41:29.128Z,45.56
2018-08-13T04:42:00.252Z,45.03
2018-08-13T04:42:31.414Z,44.84
2018-08-13T04:43:02.645Z,45.28
2018-08-13T04:43:33.825Z,44.59
2018-08-13T04:44:05.044Z,44.75
2018-08-13T04:44:36.220Z,45.13
2018-08-13T04:45:07.436Z,45.11
2018-08-13T04:45:38.555Z,45.07
2018-08-13T04:46:09.672Z,44.16
2018-08-13T04:46:40.844Z,44.13
2018-08-13T04:47:12.023Z,44.49
2018-08-13T04:47:43.195Z,44.11
2018-08-13T04:48:14.368Z,44.37
2018-08-13T04:48:45.531Z,43.43
2018-08-13T04:49:16.768Z,43.67
2018-08-13T04:49:47.939Z,43.49
2018-08-13T04:50:19.119Z,43.92
2018-08-13T04:50:50.287Z,44.14
2018-08-13T04:51:21.404Z,43.18
2018-08-13T04:51:52.580Z,42.89
2018-08-13T04:52:23.770Z,42.81
2018-08-13T04:52:54.882Z,41.95
2018-08-13T04:53:26.051Z,42.07
2018-08-13T04:53:57.292Z,41.65
2018-08-13T04:54:28.508Z,41.44
2018-08-13T04:54:59.672Z,41.43
2018-08-13T04:55:30.832Z,41.38
2018-08-13T04:56:01.960Z,41.24
2018-08-13T04:56:33.200Z,40.88
2018-08-13T04:57:04.323Z,41.29
2018-08-13T04:57:35.445Z,41.17
2018-08-13T04:58:06.560Z,40.23
2018-08-13T04:58:37.677Z,40.09
2018-08-13T04:59:08.796Z,39.65
2018-08-13T04:59:39.916Z,38.84
2018-08-13T05:00:11.125Z,39.23
2018-08-13T05:00:42.289Z,39.26
2018-08-13T05:01:13.419Z,39.52
2018-08-13T05:01:44.548Z,38.95
2018-08-13T05:02:15.792Z,38.90
2018-08-13T05:02:46.907Z,38.50
2018-08-13T05:03:18.478Z,38.33
2018-08-13T05:03:49.648Z,38.35
2018-08-13T05:04:20.877Z,38.35
2018-08-13T05:04:52.009Z,38.10
2018-08-13T05:05:23.131Z,38.19
2018-08-13T05:05:54.337Z,38.25
2018-08-13T05:06:25.479Z,37.97
2018-08-13T05:06:56.602Z,37.86
2018-08-13T05:07:27.797Z,37.48
2018-08-13T05:07:58.930Z,37.80
2018-08-13T05:08:30.052Z,38.35
2018-08-13T05:09:01.229Z,37.77
2018-08-13T05:09:32.452Z,38.11
2018-08-13T05:10:03.613Z,38.06
2018-08-13T05:10:34.794Z,38.14
2018-08-13T05:11:05.974Z,37.60
2018-08-13T05:11:37.092Z,38.35
2018-08-13T05:12:08.321Z,39.10
2018-08-13T05:12:39.507Z,38.78
2018-08-13T05:13:10.632Z,39.05
2018-08-13T05:13:41.804Z,38.32
2018-08-13T05:14:12.999Z,38.31
2018-08-13T05:14:44.215Z,38.07
2018-08-13T05:15:15.343Z,38.16
2018-08-13T05:15:46.573Z,37.85
2018-08-13T05:16:17.756Z,38.10
2018-08-13T05:16:48.903Z,37.28
2018-08-13T05:17:20.023Z,37.90
2018-08-13T05:17:51.202Z,37.95
2018-08-13T05:18:22.332Z,38.00
2018-08-13T05:18:53.454Z,37.74
2018-08-13T05:19:24.571Z,37.60
2018-08-13T05:19:55.699Z,37.30
2018-08-13T05:20:26.852Z,37.72
2018-08-13T05:20:58.033Z,37.44
2018-08-13T05:21:29.220Z,37.64
2018-08-13T05:22:00.379Z,38.23
2018-08-13T05:22:31.556Z,38.11
2018-08-13T05:23:02.721Z,38.18
2018-08-13T05:23:33.910Z,38.23
2018-08-13T05:24:05.081Z,37.51
2018-08-13T05:24:36.206Z,37.77
2018-08-13T05:25:07.345Z,38.49
2018-08-13T05:25:38.520Z,38.35
2018-08-13T05:26:09.715Z,38.08
2018-08-13T05:26:40.913Z,38.05
2018-08-13T05:27:12.093Z,37.87
2018-08-13T05:27:43.200Z,37.81
2018-08-13T05:28:14.373Z,37.35
2018-08-13T05:28:45.586Z,37.42
2018-08-13T05:29:16.711Z,37.51
2018-08-13T05:29:47.880Z,37.65
2018-08-13T05:30:18.997Z,38.04
2018-08-13T05:30:50.256Z,37.66
2018-08-13T05:31:21.476Z,37.39
2018-08-13T05:31:52.614Z,37.00
2018-08-13T05:32:23.778Z,37.09
2018-08-13T05:32:54.935Z,36.81
2018-08-13T05:33:26.057Z,36.78
2018-08-13T05:33:57.155Z,36.44
2018-08-13T05:34:28.384Z,36.53
2018-08-13T05:34:59.497Z,36.83
2018-08-13T05:35:30.617Z,36.65
2018-08-13T05:36:01.744Z,37.02
2018-08-13T05:36:32.928Z,37.10
2018-08-13T05:37:04.103Z,36.89
2018-08-13T05:37:35.287Z,37.70
2018-08-13T05:38:06.484Z,37.37
2018-08-13T05:38:37.582Z,37.50
2018-08-13T05:39:08.772Z,37.24
2018-08-13T05:39:40.013Z,38.02
2018-08-13T05:40:11.148Z,37.85
2018-08-13T05:40:42.277Z,37.60
2018-08-13T05:41:13.505Z,37.70
2018-08-13T05:41:44.623Z,37.03
2018-08-13T05:42:15.741Z,37.34
2018-08-13T05:42:46.973Z,37.64
2018-08-13T05:43:18.104Z,37.93
2018-08-13T05:43:49.384Z,38.06
2018-08-13T05:44:20.627Z,38.29
2018-08-13T05:44:51.816Z,38.82
2018-08-13T05:45:22.988Z,39.17
2018-08-13T05:45:54.145Z,39.81
2018-08-13T05:46:25.388Z,39.80
2018-08-13T05:46:56.508Z,40.47
2018-08-13T05:47:27.676Z,40.43
2018-08-13T05:47:58.911Z,40.89
2018-08-13T05:48:30.088Z,42.02
2018-08-13T05:49:01.280Z,42.77
2018-08-13T05:49:32.500Z,43.05
2018-08-13T05:50:03.745Z,43.29
2018-08-13T05:50:34.940Z,43.42
2018-08-13T05:51:06.060Z,43.52
2018-08-13T05:51:37.235Z,43.43
2018-08-13T05:52:08.411Z,43.85
2018-08-13T05:52:39.528Z,43.39
2018-08-13T05:53:10.748Z,42.84
2018-08-13T05:53:41.864Z,43.13
2018-08-13T05:54:13.044Z,43.24
2018-08-13T05:54:44.229Z,43.25
2018-08-13T05:55:15.347Z,43.18
2018-08-13T05:55:46.466Z,42.94
2018-08-13T05:56:17.633Z,42.96
2018-08-13T05:56:48.783Z,43.17
2018-08-13T05:57:19.900Z,43.14
2018-08-13T05:57:51.012Z,43.10
2018-08-13T05:58:22.128Z,43.25
2018-08-13T05:58:53.348Z,43.34
2018-08-13T05:59:24.516Z,43.16
2018-08-13T05:59:55.688Z,43.52
2018-08-13T06:00:26.928Z,43.93
2018-08-13T06:00:58.060Z,43.59
2018-08-13T06:01:29.207Z,43.65
2018-08-13T06:02:00.377Z,43.63
2018-08-13T06:02:31.600Z,42.88
2018-08-13T06:03:02.733Z,43.74
2018-08-13T06:03:33.867Z,43.26
2018-08-13T06:04:04.991Z,43.56
2018-08-13T06:04:36.360Z,43.74
2018-08-13T06:05:07.512Z,43.76
2018-08-13T06:05:38.684Z,43.96
2018-08-13T06:06:09.800Z,44.10
2018-08-13T06:06:40.923Z,43.86
2018-08-13T06:07:12.124Z,43.82
2018-08-13T06:07:43.258Z,44.07
2018-08-13T06:08:14.497Z,43.83
2018-08-13T06:08:45.620Z,43.60
2018-08-13T06:09:16.739Z,43.79
2018-08-13T06:09:47.924Z,43.85
2018-08-13T06:10:19.100Z,44.50
2018-08-13T06:10:50.419Z,44.35
2018-08-13T06:11:21.771Z,44.39
2018-08-13T06:11:52.920Z,44.32
2018-08-13T06:12:24.108Z,44.67
2018-08-13T06:12:55.348Z,44.77
2018-08-13T06:13:26.476Z,44.69
2018-08-13T06:13:57.701Z,45.10
2018-08-13T06:14:28.825Z,45.78
2018-08-13T06:14:59.942Z,45.85
2018-08-13T06:15:31.053Z,45.94
2018-08-13T06:16:02.261Z,46.01
2018-08-13T06:16:33.464Z,45.55
2018-08-13T06:17:04.577Z,45.24
2018-08-13T06:17:35.709Z,44.88
2018-08-13T06:18:06.845Z,44.80
2018-08-13T06:18:37.968Z,44.64
2018-08-13T06:19:09.084Z,44.54
2018-08-13T06:19:40.269Z,44.62
2018-08-13T06:20:11.502Z,44.75
2018-08-13T06:20:42.627Z,44.65
2018-08-13T06:21:13.806Z,44.35
2018-08-13T06:21:45.045Z,44.16
2018-08-13T06:22:16.280Z,44.45
2018-08-13T06:22:47.437Z,43.97
2018-08-13T06:23:18.572Z,44.10
2018-08-13T06:23:49.751Z,43.88
2018-08-13T06:24:21.021Z,44.58
2018-08-13T06:24:52.132Z,44.78
2018-08-13T06:25:23.249Z,44.58
2018-08-13T06:25:54.433Z,45.16
2018-08-13T06:26:25.557Z,45.37
2018-08-13T06:26:56.738Z,45.15
2018-08-13T06:27:27.884Z,45.09
2018-08-13T06:27:59.048Z,45.14
2018-08-13T06:28:30.227Z,44.64
2018-08-13T06:29:01.424Z,45.28
2018-08-13T06:29:32.644Z,45.37
2018-08-13T06:30:03.783Z,45.11
2018-08-13T06:30:34.919Z,44.97
2018-08-13T06:31:06.126Z,44.86
2018-08-13T06:31:37.244Z,44.59
2018-08-13T06:32:08.448Z,44.67
2018-08-13T06:32:39.760Z,44.64
2018-08-13T06:33:10.944Z,44.97
2018-08-13T06:33:42.142Z,44.71
2018-08-13T06:34:13.267Z,44.76
2018-08-13T06:34:44.427Z,44.98
2018-08-13T06:35:15.656Z,44.69
2018-08-13T06:35:46.849Z,44.82
2018-08-13T06:36:18.085Z,45.20
2018-08-13T06:36:49.276Z,44.65
2018-08-13T06:37:20.470Z,44.43
2018-08-13T06:37:51.609Z,45.14
2018-08-13T06:38:22.748Z,45.05
2018-08-13T06:38:53.924Z,45.39
2018-08-13T06:39:25.104Z,45.41
2018-08-13T06:39:56.264Z,45.77
2018-08-13T06:40:27.380Z,46.38
2018-08-13T06:40:58.504Z,45.76
2018-08-13T06:41:29.704Z,45.75